Aérodrome :
LOGIN :

S'inscrire | Disclaimer

   EN    FR    IT 

 










Légende :    VFR   VFR Marginal   IFR   IFR Intensif   IFR Très Intensif
Visi : 
Plafond : 
>= 8 km
>= 3000ft
5 à 8 km
1000 à 3000 ft
1500m à 5 km
500 à 1000 ft
800 à 1500m
200 à 500 ft
< 800m
< 200 ft
Symboles :   Orages  Brouillard  Fortes neiges  Fortes précipitations  Vent > 20 kt
SIGMETs :   Divers  Orages  Givrage  Turbulence  Onde Orograph.  Cendres Volcan.






- Altitude de l'aérodrome : 37 ft


EHVL - Vlieland Heliport

DERNIER METAR :
  • 270155Z AUTO 26015KT 9999 FEW015CB SCT018 BKN025 OVC087 17/15 Q1009 WHT

METARs EXPIRÉS :
  • 270131Z AUTO 26014KT 9999 SCT008 SCT015CB BKN022 OVC026 17/16 Q1009 GRN
  • 270125Z AUTO 26012KT 9999 FEW008 SCT015CB BKN021 17/16 Q1009 RERA WHT
  • 270113Z AUTO 26012KT 6000 -SHRA FEW006 BKN007 SCT015CB BKN024 17/17 Q1009 GRN
  • 270106Z AUTO 26012KT 5000 SHRA FEW004 SCT015CB BKN077 17/17 Q1009 WHT
  • 270055Z AUTO 27013KT 3200 SHRA BKN003 BKN004 SCT015CB OVC064 17/17 Q1009 YLO
  • 270039Z AUTO 27015KT 2900 RA BKN003 SCT015CB BKN030 OVC072 17/17 Q1009 YLO
  • 270032Z AUTO 27014KT 2800 RA SCT002 BKN004 BKN010 SCT015CB 17/17 Q1009 AMB
  • 270025Z AUTO 27015KT 2500 RA FEW003 SCT004 FEW015CB BKN035 17/17 Q1009 RERA REDZ YLO
  • 270014Z AUTO 27016KT 2100 +RA BKN002 BKN003 BKN007 SCT015CB 17/17 Q1009 AMB
  • 270013Z AUTO 27016KT 1900 +SHRA FEW000 SCT002 BKN003 SCT015CB 17/17 Q1009 AMB
  • 270001Z AUTO 26018KT 3100 +DZRA SCT003 BKN004 SCT015CB 18/17 Q1009 YLO
  • 262355Z AUTO 26017KT 6000 +DZ BKN004 BKN005 SCT015CB 17/17 Q1009 RETS YLO
  • 262325Z AUTO 27016KT 6000 TS BR BKN004 BKN006 FEW015CB 18/17 Q1009 YLO
  • 262300Z AUTO 27015KT 5000 BR BKN004 BKN005 BKN006 FEW015CB 18/18 Q1009 YLO
  • 262256Z AUTO 27015KT 5000 -DZ SCT004 SCT006 BKN009 FEW015CB 18/18 Q1009 YLO

Prévision TAF périmée.



MET'MAP, la Météo Aéronautique d'un coup d'oeil ! - Copyright ORBIFLY Décembre 2007 - Disclaimer

ORBIFLY MET'MAP TEAM :

Programmation & Développement : Alexandra Zaïnal
Sur une idée originale de : Baudouin d'Aumeries
Assistance à la programmation : Marc-Olivier Méhu
Soutien technique & logistique : Manuel Goepfert

Contact : metmap@orbifly.com




SOURCES & CREDITS :

   NOAA